createdAt,value
2022-12-24T00:00:59.855Z,98938.28
2022-12-24T00:03:27.208Z,98951.31
2022-12-24T00:05:53.950Z,98952.91
2022-12-24T00:08:20.705Z,98958.31
2022-12-24T00:10:53.867Z,98952.78
2022-12-24T00:13:21.034Z,98960.25
2022-12-24T00:15:47.682Z,98960.25
2022-12-24T00:18:14.410Z,98951.66
2022-12-24T00:20:41.210Z,98952.28
2022-12-24T00:23:08.095Z,98952.28
2022-12-24T00:25:34.651Z,98946.25
2022-12-24T00:28:01.244Z,98945.63
2022-12-24T00:30:27.831Z,98955.81
2022-12-24T00:32:54.664Z,98961.84
2022-12-24T00:35:21.965Z,98959.47
2022-12-24T00:37:48.961Z,98960.88
2022-12-24T00:40:16.764Z,98960.88
2022-12-24T00:42:43.459Z,98962.47
2022-12-24T00:45:11.097Z,98956.78
2022-12-24T00:47:37.726Z,98969.19
2022-12-24T00:50:05.843Z,98970.28
2022-12-24T00:52:32.418Z,98972.19
2022-12-24T00:54:59.072Z,98970.28
2022-12-24T00:57:25.727Z,98983.63
2022-12-24T00:59:52.321Z,98979.31
2022-12-24T01:02:19.188Z,98981.06
2022-12-24T01:05:04.812Z,98983.75
2022-12-24T01:07:31.434Z,98989.31
2022-12-24T01:09:58.020Z,98991.50
2022-12-24T01:12:25.536Z,99007.41
2022-12-24T01:14:52.146Z,98999.31
2022-12-24T01:17:18.775Z,99011.72
2022-12-24T01:19:45.498Z,98995.50
2022-12-24T01:22:12.113Z,99000.28
2022-12-24T01:24:41.623Z,99005.41
2022-12-24T01:27:08.803Z,99017.81
2022-12-24T01:29:35.572Z,99012.88
2022-12-24T01:32:02.164Z,99007.97
2022-12-24T01:34:28.794Z,98994.16
2022-12-24T01:36:55.333Z,99001.94
2022-12-24T01:39:21.995Z,99000.81
2022-12-24T01:42:07.084Z,99014.56
2022-12-24T01:44:37.384Z,99003.09
2022-12-24T01:47:11.425Z,99001.50
2022-12-24T01:49:41.817Z,99024.44
2022-12-24T01:52:16.921Z,99010.94
2022-12-24T01:54:57.715Z,99011.72
2022-12-24T01:57:49.151Z,99006.63
2022-12-24T02:00:16.817Z,99017.31
2022-12-24T02:02:50.527Z,99028.13
2022-12-24T02:05:36.268Z,99051.38
2022-12-24T02:08:04.784Z,99047.56
2022-12-24T02:10:31.415Z,99049.44
2022-12-24T02:12:59.945Z,99043.75
2022-12-24T02:15:34.195Z,99048.66
2022-12-24T02:18:24.062Z,99044.16
2022-12-24T02:21:02.997Z,99041.34
2022-12-24T02:23:29.528Z,99043.75
2022-12-24T02:26:26.098Z,99060.59
2022-12-24T02:29:45.442Z,99071.41
2022-12-24T02:32:18.175Z,99067.28
2022-12-24T02:34:56.635Z,99065.38
2022-12-24T02:37:33.432Z,99076.22
2022-12-24T02:40:22.720Z,99070.59
2022-12-24T02:42:58.598Z,99083.03
2022-12-24T02:45:34.462Z,99074.13
2022-12-24T02:48:01.319Z,99082.25
2022-12-24T02:50:28.694Z,99093.84
2022-12-24T02:52:55.311Z,99093.69
2022-12-24T02:55:36.574Z,99092.88
2022-12-24T02:58:03.075Z,99096.69
2022-12-24T03:00:55.885Z,99105.13
2022-12-24T03:03:36.622Z,99095.06
2022-12-24T03:06:19.997Z,99106.38
2022-12-24T03:08:54.116Z,99119.22
2022-12-24T03:11:21.070Z,99110.53
2022-12-24T03:13:49.645Z,99104.31
2022-12-24T03:16:25.065Z,99113.53
2022-12-24T03:18:53.692Z,99119.13
2022-12-24T03:21:28.526Z,99119.44
2022-12-24T03:23:55.731Z,99134.25
2022-12-24T03:26:23.348Z,99117.53
2022-12-24T03:28:50.388Z,99120.72
2022-12-24T03:31:18.828Z,99129.94
2022-12-24T03:33:46.319Z,99122.94
2022-12-24T03:36:13.492Z,99124.53
2022-12-24T03:38:40.101Z,99121.34
2022-12-24T03:41:06.866Z,99107.50
2022-12-24T03:43:33.605Z,99117.53
2022-12-24T03:46:06.373Z,99121.34
2022-12-24T03:48:35.561Z,99126.44
2022-12-24T03:51:03.616Z,99127.25
2022-12-24T03:53:30.217Z,99123.72
2022-12-24T03:55:56.885Z,99126.75
2022-12-24T03:58:23.422Z,99120.53
2022-12-24T04:00:50.026Z,99133.75
2022-12-24T04:03:16.729Z,99144.59
2022-12-24T04:05:43.319Z,99132.75
2022-12-24T04:08:09.872Z,99145.16
2022-12-24T04:10:36.548Z,99141.38
2022-12-24T04:13:03.152Z,99139.75
2022-12-24T04:15:29.753Z,99142.16
2022-12-24T04:17:56.322Z,99143.00
2022-12-24T04:20:22.874Z,99134.88
2022-12-24T04:22:49.400Z,99136.75
2022-12-24T04:25:16.122Z,99125.94
2022-12-24T04:27:42.687Z,99120.81
2022-12-24T04:30:09.714Z,99122.75
2022-12-24T04:32:36.308Z,99115.53
2022-12-24T04:35:03.059Z,99131.88
2022-12-24T04:37:29.770Z,99126.97
2022-12-24T04:39:56.425Z,99130.78
2022-12-24T04:42:22.972Z,99129.69
2022-12-24T04:44:49.544Z,99131.88
2022-12-24T04:47:16.484Z,99131.88
2022-12-24T04:49:43.510Z,99142.50
2022-12-24T04:52:10.035Z,99128.19
2022-12-24T04:54:36.661Z,99133.59
2022-12-24T04:57:03.199Z,99123.56
2022-12-24T04:59:29.847Z,99125.50
2022-12-24T05:01:56.574Z,99125.50
2022-12-24T05:04:23.260Z,99137.59
2022-12-24T05:06:49.841Z,99144.31
2022-12-24T05:09:16.475Z,99143.00
2022-12-24T05:11:43.035Z,99141.59
2022-12-24T05:14:09.600Z,99151.31
2022-12-24T05:16:36.327Z,99154.84
2022-12-24T05:19:02.995Z,99153.41
2022-12-24T05:21:29.569Z,99169.34
2022-12-24T05:24:15.186Z,99165.03
2022-12-24T05:26:48.251Z,99169.63
2022-12-24T05:29:14.846Z,99170.13
2022-12-24T05:31:43.484Z,99182.06
2022-12-24T05:34:11.022Z,99169.63
2022-12-24T05:36:38.205Z,99168.53
2022-12-24T05:39:09.793Z,99175.03
2022-12-24T05:41:40.216Z,99171.84
2022-12-24T05:44:06.992Z,99174.56
2022-12-24T05:46:33.603Z,99164.84
2022-12-24T05:49:00.183Z,99168.66
2022-12-24T05:51:26.770Z,99169.53
2022-12-24T05:53:53.376Z,99170.38
2022-12-24T05:56:23.955Z,99173.84
2022-12-24T05:58:52.267Z,99177.34
2022-12-24T06:01:20.100Z,99177.63
2022-12-24T06:03:47.272Z,99192.31
2022-12-24T06:06:19.380Z,99191.72
2022-12-24T06:08:46.280Z,99195.56
2022-12-24T06:11:14.691Z,99191.84
2022-12-24T06:13:42.517Z,99188.53
2022-12-24T06:16:14.402Z,99190.13
2022-12-24T06:18:42.152Z,99186.34
2022-12-24T06:21:09.811Z,99190.50
2022-12-24T06:23:39.153Z,99196.56
2022-12-24T06:26:07.365Z,99199.13
2022-12-24T06:28:37.013Z,99203.66
2022-12-24T06:31:06.032Z,99200.78
2022-12-24T06:33:34.203Z,99219.91
2022-12-24T06:36:01.613Z,99197.06
2022-12-24T06:38:30.291Z,99195.94
2022-12-24T06:40:57.144Z,99187.66
2022-12-24T06:43:23.778Z,99202.31
2022-12-24T06:45:50.410Z,99187.03
2022-12-24T06:48:17.053Z,99192.00
2022-12-24T06:50:44.251Z,99198.78
2022-12-24T06:53:11.151Z,99192.09
2022-12-24T06:55:38.364Z,99193.72
2022-12-24T06:58:05.201Z,99200.41
2022-12-24T07:00:31.871Z,99200.03
2022-12-24T07:02:58.737Z,99191.53
2022-12-24T07:05:25.503Z,99193.22
2022-12-24T07:07:52.104Z,99189.53
2022-12-24T07:10:19.891Z,99189.13
2022-12-24T07:12:46.803Z,99187.03
2022-12-24T07:15:14.281Z,99194.13
2022-12-24T07:17:41.606Z,99201.72
2022-12-24T07:20:12.374Z,99194.19
2022-12-24T07:22:38.964Z,99204.50
2022-12-24T07:25:06.041Z,99199.91
2022-12-24T07:27:32.632Z,99199.09
2022-12-24T07:29:59.223Z,99207.69
2022-12-24T07:32:25.840Z,99211.81
2022-12-24T07:34:52.417Z,99205.09
2022-12-24T07:37:18.986Z,99217.22
2022-12-24T07:39:45.696Z,99213.41
2022-12-24T07:42:12.248Z,99232.63
2022-12-24T07:44:38.934Z,99222.91
2022-12-24T07:47:05.593Z,99217.50
2022-12-24T07:49:32.288Z,99217.50
2022-12-24T07:51:59.000Z,99225.91
2022-12-24T07:54:25.750Z,99231.50
2022-12-24T07:56:52.297Z,99232.94
2022-12-24T07:59:19.013Z,99237.41
2022-12-24T08:01:45.746Z,99239.53
2022-12-24T08:04:12.669Z,99239.47
2022-12-24T08:06:39.846Z,99244.28
2022-12-24T08:09:06.473Z,99247.47
2022-12-24T08:11:33.088Z,99241.47
2022-12-24T08:13:59.755Z,99245.19
2022-12-24T08:16:26.483Z,99249.91
2022-12-24T08:18:53.077Z,99253.59
2022-12-24T08:21:19.673Z,99257.81
2022-12-24T08:23:47.161Z,99259.13
2022-12-24T08:26:13.925Z,99263.31
2022-12-24T08:28:40.663Z,99279.75
2022-12-24T08:31:07.634Z,99279.66
2022-12-24T08:33:34.483Z,99277.16
2022-12-24T08:36:02.386Z,99282.44
2022-12-24T08:38:29.500Z,99282.06
2022-12-24T08:40:56.538Z,99293.88
2022-12-24T08:43:25.519Z,99292.44
2022-12-24T08:45:52.859Z,99291.66
2022-12-24T08:48:19.936Z,99285.63
2022-12-24T08:50:47.093Z,99290.94
2022-12-24T08:53:14.054Z,99293.03
2022-12-24T08:55:40.726Z,99287.63
2022-12-24T08:58:07.487Z,99294.03
2022-12-24T09:00:34.079Z,99288.53
2022-12-24T09:03:00.853Z,99283.00
2022-12-24T09:05:27.671Z,99285.22
2022-12-24T09:07:55.469Z,99279.59
2022-12-24T09:10:22.689Z,99282.63
2022-12-24T09:12:49.307Z,99289.03
2022-12-24T09:15:15.907Z,99301.44
2022-12-24T09:17:42.871Z,99302.94
2022-12-24T09:20:10.288Z,99315.25
2022-12-24T09:22:38.644Z,99307.53
2022-12-24T09:25:10.554Z,99317.91
2022-12-24T09:27:37.965Z,99322.44
2022-12-24T09:30:06.262Z,99328.47
2022-12-24T09:32:33.988Z,99325.56
2022-12-24T09:35:01.039Z,99326.97
2022-12-24T09:37:27.633Z,99325.38
2022-12-24T09:39:54.815Z,99330.19
2022-12-24T09:42:48.679Z,99329.06
2022-12-24T09:45:56.963Z,99340.53
2022-12-24T09:48:29.348Z,99339.69
2022-12-24T09:51:05.009Z,99344.94
2022-12-24T09:53:47.949Z,99353.06
2022-12-24T09:56:21.071Z,99345.72
2022-12-24T09:58:58.443Z,99351.97
2022-12-24T10:01:25.400Z,99345.94
2022-12-24T10:03:52.269Z,99352.94
2022-12-24T10:06:29.649Z,99351.22
2022-12-24T10:09:24.649Z,99358.53
2022-12-24T10:12:36.223Z,99348.03
2022-12-24T10:15:30.754Z,99349.50
2022-12-24T10:18:06.503Z,99350.22
2022-12-24T10:20:56.374Z,99351.00
2022-12-24T10:23:34.757Z,99354.31
2022-12-24T10:26:27.002Z,99358.75
2022-12-24T10:28:58.443Z,99352.22
2022-12-24T10:31:42.216Z,99355.03
2022-12-24T10:34:24.620Z,99356.94
2022-12-24T10:36:51.992Z,99355.53
2022-12-24T10:39:24.420Z,99362.66
2022-12-24T10:41:57.994Z,99369.97
2022-12-24T10:44:27.894Z,99374.19
2022-12-24T10:46:54.654Z,99362.56
2022-12-24T10:49:36.874Z,99369.56
2022-12-24T10:52:05.460Z,99377.81
2022-12-24T10:54:39.374Z,99363.94
2022-12-24T10:57:22.646Z,99359.34
2022-12-24T10:59:55.062Z,99358.13
2022-12-24T11:02:32.957Z,99359.56
2022-12-24T11:05:02.061Z,99353.53
2022-12-24T11:07:31.060Z,99356.72
2022-12-24T11:10:03.532Z,99349.72
2022-12-24T11:12:33.576Z,99352.91
2022-12-24T11:15:14.880Z,99353.63
2022-12-24T11:17:41.496Z,99348.09
2022-12-24T11:20:18.365Z,99345.91
2022-12-24T11:22:50.323Z,99345.41
2022-12-24T11:25:29.029Z,99356.31
2022-12-24T11:27:56.452Z,99361.16
2022-12-24T11:30:32.106Z,99352.31
2022-12-24T11:33:01.985Z,99366.75
2022-12-24T11:35:32.840Z,99363.38
2022-12-24T11:38:02.246Z,99374.78
2022-12-24T11:40:36.668Z,99364.28
2022-12-24T11:43:10.982Z,99360.94
2022-12-24T11:45:51.149Z,99358.84
2022-12-24T11:48:28.268Z,99360.56
2022-12-24T11:51:06.791Z,99362.97
2022-12-24T11:54:14.962Z,99351.34
2022-12-24T11:56:47.208Z,99355.53
2022-12-24T11:59:29.336Z,99357.75
2022-12-24T12:02:05.067Z,99356.66
2022-12-24T12:04:35.948Z,99363.94
2022-12-24T12:07:15.120Z,99347.53
2022-12-24T12:09:47.300Z,99358.16
2022-12-24T12:12:21.583Z,99350.94
2022-12-24T12:14:55.982Z,99345.22
2022-12-24T12:17:32.505Z,99350.03
2022-12-24T12:20:25.723Z,99350.34
2022-12-24T12:23:04.454Z,99359.59
2022-12-24T12:26:03.062Z,99363.78
2022-12-24T12:28:41.469Z,99363.78
2022-12-24T12:31:30.247Z,99362.78
2022-12-24T12:34:12.017Z,99364.59
2022-12-24T12:37:12.766Z,99359.00
2022-12-24T12:39:41.606Z,99345.75
2022-12-24T12:42:32.625Z,99359.56
2022-12-24T12:45:02.244Z,99362.47
2022-12-24T12:47:44.008Z,99360.78
2022-12-24T12:50:19.608Z,99367.78
2022-12-24T12:53:04.306Z,99360.16
2022-12-24T12:55:43.022Z,99358.75
2022-12-24T12:58:35.487Z,99353.06
2022-12-24T13:01:09.081Z,99362.78
2022-12-24T13:04:02.344Z,99370.38
2022-12-24T13:06:57.901Z,99359.84
2022-12-24T13:09:33.519Z,99360.06
2022-12-24T13:12:09.260Z,99352.09
2022-12-24T13:14:57.548Z,99344.31
2022-12-24T13:17:36.280Z,99350.31
2022-12-24T13:20:25.037Z,99360.34
2022-12-24T13:22:57.783Z,99355.13
2022-12-24T13:25:34.569Z,99352.72
2022-12-24T13:28:22.627Z,99365.97
2022-12-24T13:31:02.214Z,99360.72
2022-12-24T13:33:38.140Z,99371.56
2022-12-24T13:36:11.912Z,99374.78
2022-12-24T13:38:42.630Z,99364.97
2022-12-24T13:41:39.217Z,99372.78
2022-12-24T13:44:06.907Z,99373.97
2022-12-24T13:46:56.966Z,99357.22
2022-12-24T13:49:31.929Z,99359.72
2022-12-24T13:52:10.721Z,99347.00
2022-12-24T13:54:55.597Z,99352.13
2022-12-24T13:57:33.776Z,99349.59
2022-12-24T14:00:20.603Z,99359.31
2022-12-24T14:03:02.722Z,99363.13
2022-12-24T14:05:47.160Z,99356.25
2022-12-24T14:08:23.105Z,99351.31
2022-12-24T14:11:14.647Z,99362.75
2022-12-24T14:13:41.316Z,99369.47
2022-12-24T14:16:12.973Z,99366.56
2022-12-24T14:18:42.179Z,99357.97
2022-12-24T14:21:18.042Z,99375.97
2022-12-24T14:23:51.619Z,99373.38
2022-12-24T14:26:21.416Z,99378.81
2022-12-24T14:29:00.941Z,99381.63
2022-12-24T14:31:27.860Z,99378.41
2022-12-24T14:34:12.469Z,99380.63
2022-12-24T14:36:41.739Z,99369.31
2022-12-24T14:39:11.571Z,99373.13
2022-12-24T14:42:10.669Z,99377.34
2022-12-24T14:44:53.363Z,99383.53
2022-12-24T14:47:40.504Z,99381.44
2022-12-24T14:50:39.685Z,99384.75
2022-12-24T14:53:28.484Z,99389.66
2022-12-24T14:55:55.052Z,99380.94
2022-12-24T14:58:32.649Z,99370.72
2022-12-24T15:01:18.132Z,99377.84
2022-12-24T15:03:44.904Z,99388.84
2022-12-24T15:06:14.291Z,99400.28
2022-12-24T15:08:46.313Z,99403.28
2022-12-24T15:11:21.202Z,99405.38
2022-12-24T15:13:53.377Z,99403.19
2022-12-24T15:16:28.274Z,99393.16
2022-12-24T15:18:58.567Z,99400.47
2022-12-24T15:21:37.756Z,99391.88
2022-12-24T15:24:04.918Z,99392.06
2022-12-24T15:26:37.468Z,99403.09
2022-12-24T15:29:21.000Z,99411.81
2022-12-24T15:31:53.719Z,99419.31
2022-12-24T15:34:37.261Z,99437.16
2022-12-24T15:37:16.810Z,99436.66
2022-12-24T15:39:44.324Z,99431.75
2022-12-24T15:42:18.793Z,99424.13
2022-12-24T15:45:01.968Z,99433.94
2022-12-24T15:47:39.919Z,99437.16
2022-12-24T15:50:18.231Z,99438.75
2022-12-24T15:52:46.331Z,99439.25
2022-12-24T15:55:31.328Z,99441.75
2022-12-24T15:57:58.255Z,99440.97
2022-12-24T16:00:31.030Z,99442.34
2022-12-24T16:03:16.372Z,99439.75
2022-12-24T16:05:43.025Z,99441.84
2022-12-24T16:08:09.628Z,99440.75
2022-12-24T16:10:39.810Z,99450.97
2022-12-24T16:13:15.206Z,99446.66
2022-12-24T16:16:03.143Z,99457.19
2022-12-24T16:18:36.646Z,99453.88
2022-12-24T16:21:04.621Z,99448.38
2022-12-24T16:23:39.374Z,99451.59
2022-12-24T16:26:06.230Z,99457.81
2022-12-24T16:28:32.943Z,99461.63
2022-12-24T16:30:59.850Z,99456.00
2022-12-24T16:33:26.689Z,99456.00
2022-12-24T16:35:53.381Z,99450.09
2022-12-24T16:38:19.961Z,99450.41
2022-12-24T16:40:47.130Z,99442.56
2022-12-24T16:43:32.917Z,99427.94
2022-12-24T16:46:05.473Z,99429.53
2022-12-24T16:48:36.326Z,99428.16
2022-12-24T16:51:02.983Z,99418.13
2022-12-24T16:53:29.721Z,99404.09
2022-12-24T16:55:56.432Z,99409.50
2022-12-24T16:58:23.033Z,99419.22
2022-12-24T17:00:49.733Z,99430.53
2022-12-24T17:03:16.429Z,99441.38
2022-12-24T17:05:44.409Z,99447.38
2022-12-24T17:08:12.144Z,99448.47
2022-12-24T17:10:39.387Z,99453.88
2022-12-24T17:13:06.820Z,99444.44
2022-12-24T17:15:33.850Z,99453.38
2022-12-24T17:18:00.506Z,99455.00
2022-12-24T17:20:27.106Z,99449.59
2022-12-24T17:22:53.801Z,99445.56
2022-12-24T17:25:20.464Z,99454.19
2022-12-24T17:27:46.988Z,99453.38
2022-12-24T17:30:13.794Z,99448.56
2022-12-24T17:32:40.388Z,99444.78
2022-12-24T17:35:08.015Z,99431.75
2022-12-24T17:37:34.611Z,99438.25
2022-12-24T17:40:01.458Z,99442.56
2022-12-24T17:42:28.053Z,99436.06
2022-12-24T17:44:54.583Z,99430.34
2022-12-24T17:47:21.269Z,99425.72
2022-12-24T17:49:47.842Z,99433.84
2022-12-24T17:52:14.482Z,99444.66
2022-12-24T17:54:41.087Z,99440.88
2022-12-24T17:57:07.727Z,99450.09
2022-12-24T17:59:34.344Z,99451.19
2022-12-24T18:02:01.017Z,99450.97
2022-12-24T18:04:27.656Z,99447.47
2022-12-24T18:07:01.715Z,99455.28
2022-12-24T18:09:29.566Z,99459.91
2022-12-24T18:11:56.197Z,99460.69
2022-12-24T18:14:22.829Z,99461.78
2022-12-24T18:16:49.960Z,99456.19
2022-12-24T18:19:16.681Z,99467.63
2022-12-24T18:21:43.404Z,99459.78
2022-12-24T18:24:12.412Z,99461.75
2022-12-24T18:26:39.485Z,99473.19
2022-12-24T18:29:08.793Z,99461.84
2022-12-24T18:31:36.027Z,99459.75
2022-12-24T18:34:04.704Z,99458.16
2022-12-24T18:36:31.408Z,99462.44
2022-12-24T18:38:58.126Z,99464.34
2022-12-24T18:41:28.097Z,99467.97
2022-12-24T18:43:55.827Z,99469.56
2022-12-24T18:46:25.440Z,99462.56
2022-12-24T18:48:53.305Z,99465.84
2022-12-24T18:51:22.934Z,99465.84
2022-12-24T18:53:50.738Z,99466.34
2022-12-24T18:56:21.091Z,99456.09
2022-12-24T18:58:47.777Z,99461.81
2022-12-24T19:01:24.115Z,99470.22
2022-12-24T19:03:51.102Z,99467.50
2022-12-24T19:06:18.735Z,99476.44
2022-12-24T19:08:57.196Z,99476.13
2022-12-24T19:11:26.552Z,99479.94
2022-12-24T19:13:53.517Z,99487.03
2022-12-24T19:16:20.870Z,99489.22
2022-12-24T19:18:47.862Z,99479.75
2022-12-24T19:21:15.624Z,99478.34
2022-12-24T19:23:42.552Z,99484.25
2022-12-24T19:26:10.918Z,99477.16
2022-12-24T19:28:37.839Z,99476.56
2022-12-24T19:31:19.230Z,99472.78
2022-12-24T19:33:48.418Z,99475.16
2022-12-24T19:36:17.932Z,99475.97
2022-12-24T19:38:44.675Z,99484.69
2022-12-24T19:41:13.939Z,99502.00
2022-12-24T19:43:42.869Z,99500.91
2022-12-24T19:46:14.698Z,99502.81
2022-12-24T19:48:41.751Z,99504.88
2022-12-24T19:51:11.321Z,99501.56
2022-12-24T19:53:39.381Z,99502.16
2022-12-24T19:56:06.792Z,99497.34
2022-12-24T19:58:34.743Z,99489.22
2022-12-24T20:01:14.920Z,99476.03
2022-12-24T20:03:43.000Z,99478.41
2022-12-24T20:06:09.934Z,99478.41
2022-12-24T20:08:37.896Z,99475.72
2022-12-24T20:11:07.113Z,99470.91
2022-12-24T20:13:35.098Z,99463.88
2022-12-24T20:16:06.738Z,99462.06
2022-12-24T20:18:33.890Z,99460.47
2022-12-24T20:21:02.232Z,99459.16
2022-12-24T20:23:29.437Z,99466.22
2022-12-24T20:26:01.454Z,99469.63
2022-12-24T20:28:28.893Z,99463.31
2022-12-24T20:30:55.798Z,99462.50
2022-12-24T20:33:22.882Z,99461.50
2022-12-24T20:35:50.028Z,99465.88
2022-12-24T20:38:16.660Z,99464.84
2022-12-24T20:40:45.364Z,99466.25
2022-12-24T20:43:12.979Z,99464.13
2022-12-24T20:45:39.678Z,99461.72
2022-12-24T20:48:07.278Z,99469.59
2022-12-24T20:50:33.892Z,99484.41
2022-12-24T20:53:00.516Z,99474.44
2022-12-24T20:55:27.090Z,99471.41
2022-12-24T20:57:53.631Z,99479.25
2022-12-24T21:00:20.926Z,99477.06
2022-12-24T21:02:47.637Z,99485.66
2022-12-24T21:05:14.353Z,99477.84
2022-12-24T21:07:42.964Z,99491.16
2022-12-24T21:10:11.403Z,99480.34
2022-12-24T21:12:50.388Z,99483.31
2022-12-24T21:15:21.125Z,99478.19
2022-12-24T21:17:48.238Z,99470.91
2022-12-24T21:20:15.757Z,99467.94
2022-12-24T21:22:42.339Z,99468.22
2022-12-24T21:25:10.462Z,99465.50
2022-12-24T21:27:37.088Z,99463.09
2022-12-24T21:30:05.451Z,99459.00
2022-12-24T21:32:32.143Z,99456.03
2022-12-24T21:34:58.704Z,99446.81
2022-12-24T21:37:25.341Z,99450.63
2022-12-24T21:39:51.916Z,99442.53
2022-12-24T21:42:18.542Z,99439.50
2022-12-24T21:44:45.113Z,99443.03
2022-12-24T21:47:11.709Z,99442.22
2022-12-24T21:49:57.497Z,99433.00
2022-12-24T21:52:24.127Z,99439.81
2022-12-24T21:54:50.706Z,99452.50
2022-12-24T21:57:35.924Z,99443.63
2022-12-24T22:00:21.380Z,99451.72
2022-12-24T22:02:57.994Z,99454.19
2022-12-24T22:05:26.194Z,99448.78
2022-12-24T22:08:13.013Z,99449.56
2022-12-24T22:10:59.025Z,99449.56
2022-12-24T22:13:26.087Z,99455.78
2022-12-24T22:15:54.172Z,99446.59
2022-12-24T22:18:23.671Z,99449.81
2022-12-24T22:20:50.843Z,99458.13
2022-12-24T22:23:18.352Z,99464.84
2022-12-24T22:25:45.811Z,99456.47
2022-12-24T22:28:12.478Z,99462.66
2022-12-24T22:30:41.404Z,99463.47
2022-12-24T22:33:08.787Z,99465.06
2022-12-24T22:35:41.666Z,99479.09
2022-12-24T22:38:09.945Z,99475.00
2022-12-24T22:40:39.605Z,99467.69
2022-12-24T22:43:06.223Z,99474.19
2022-12-24T22:45:32.759Z,99473.19
2022-12-24T22:47:59.331Z,99483.97
2022-12-24T22:50:26.102Z,99477.47
2022-12-24T22:52:53.828Z,99480.50
2022-12-24T22:55:20.772Z,99471.06
2022-12-24T22:57:47.386Z,99473.44
2022-12-24T23:00:35.586Z,99480.25
2022-12-24T23:03:02.237Z,99477.06
2022-12-24T23:05:28.862Z,99472.16
2022-12-24T23:07:55.448Z,99467.84
2022-12-24T23:10:22.001Z,99453.84
2022-12-24T23:13:11.216Z,99451.41
2022-12-24T23:15:41.433Z,99452.81
2022-12-24T23:18:08.526Z,99450.13
2022-12-24T23:20:43.131Z,99439.31
2022-12-24T23:23:09.761Z,99454.41
2022-12-24T23:25:36.529Z,99452.00
2022-12-24T23:28:03.272Z,99453.38
2022-12-24T23:30:29.903Z,99453.97
2022-12-24T23:32:56.521Z,99450.97
2022-12-24T23:35:23.189Z,99445.84
2022-12-24T23:37:49.825Z,99446.16
2022-12-24T23:40:16.497Z,99438.84
2022-12-24T23:42:43.222Z,99437.25
2022-12-24T23:45:10.230Z,99440.75
2022-12-24T23:47:36.855Z,99444.56
2022-12-24T23:50:04.488Z,99427.53
2022-12-24T23:52:31.891Z,99431.06
2022-12-24T23:54:58.413Z,99441.56
2022-12-24T23:57:25.008Z,99439.34
2022-12-24T23:59:51.626Z,99428.56
